createdAt,value
2022-12-13T00:02:03.779Z,21.92
2022-12-13T00:04:49.289Z,20.33
2022-12-13T00:07:36.118Z,20.83
2022-12-13T00:10:21.879Z,20.90
2022-12-13T00:13:07.140Z,20.45
2022-12-13T00:16:00.880Z,22.70
2022-12-13T00:18:58.698Z,20.52
2022-12-13T00:21:44.842Z,19.25
2022-12-13T00:24:30.900Z,23.20
2022-12-13T00:27:16.731Z,20.95
2022-12-13T00:30:02.587Z,22.30
2022-12-13T00:32:48.461Z,20.38
2022-12-13T00:35:39.228Z,21.73
2022-12-13T00:38:24.571Z,21.13
2022-12-13T00:41:18.413Z,23.95
2022-12-13T00:44:04.872Z,21.75
2022-12-13T00:46:51.790Z,22.98
2022-12-13T00:49:37.201Z,22.08
2022-12-13T00:52:23.022Z,24.73
2022-12-13T00:55:09.171Z,21.55
2022-12-13T00:57:54.745Z,22.63
2022-12-13T01:00:39.998Z,24.10
2022-12-13T01:03:27.310Z,22.45
2022-12-13T01:06:17.090Z,23.08
2022-12-13T01:09:04.777Z,23.92
2022-12-13T01:11:50.608Z,24.48
2022-12-13T01:14:37.065Z,23.75
2022-12-13T01:17:22.387Z,24.20
2022-12-13T01:20:08.803Z,22.48
2022-12-13T01:22:54.058Z,23.75
2022-12-13T01:25:39.829Z,24.05
2022-12-13T01:28:25.721Z,24.48
2022-12-13T01:31:14.080Z,23.60
2022-12-13T01:33:59.787Z,24.40
2022-12-13T01:36:46.435Z,22.02
2022-12-13T01:39:31.504Z,23.88
2022-12-13T01:42:23.684Z,24.20
2022-12-13T01:45:24.175Z,24.05
2022-12-13T01:48:21.042Z,23.55
2022-12-13T01:51:10.040Z,23.98
2022-12-13T01:53:59.070Z,20.98
2022-12-13T01:56:50.003Z,22.92
2022-12-13T01:59:38.432Z,22.80
2022-12-13T02:02:23.719Z,22.10
2022-12-13T02:05:21.375Z,23.52
2022-12-13T02:08:09.570Z,23.02
2022-12-13T02:10:55.507Z,24.08
2022-12-13T02:13:40.837Z,23.40
2022-12-13T02:16:52.929Z,22.27
2022-12-13T02:20:04.963Z,22.15
2022-12-13T02:23:02.523Z,22.83
2022-12-13T02:26:03.992Z,21.80
2022-12-13T02:29:06.677Z,21.92
2022-12-13T02:32:03.670Z,25.40
2022-12-13T02:34:55.639Z,23.60
2022-12-13T02:37:46.988Z,23.10
2022-12-13T02:40:36.423Z,23.52
2022-12-13T02:43:51.317Z,21.70
2022-12-13T02:49:30.072Z,21.00
2022-12-13T02:52:22.575Z,22.45
2022-12-13T02:55:12.392Z,20.92
2022-12-13T02:57:57.887Z,22.73
2022-12-13T03:01:27.933Z,20.92
2022-12-13T03:05:15.136Z,23.25
2022-12-13T03:08:20.449Z,20.63
2022-12-13T03:11:10.025Z,20.73
2022-12-13T03:13:59.790Z,21.27
2022-12-13T03:16:47.127Z,20.70
2022-12-13T03:19:32.599Z,20.95
2022-12-13T03:22:17.889Z,20.02
2022-12-13T03:25:03.136Z,19.00
2022-12-13T03:27:49.038Z,20.52
2022-12-13T03:30:35.184Z,19.92
2022-12-13T03:33:20.383Z,21.48
2022-12-13T03:36:07.049Z,18.77
2022-12-13T03:38:54.280Z,20.42
2022-12-13T03:41:39.558Z,18.70
2022-12-13T03:44:25.230Z,18.98
2022-12-13T03:47:17.477Z,17.85
2022-12-13T03:50:25.777Z,16.88
2022-12-13T03:53:22.177Z,18.58
2022-12-13T03:56:09.704Z,19.42
2022-12-13T03:58:57.106Z,19.10
2022-12-13T04:01:42.636Z,19.50
2022-12-13T04:04:32.064Z,17.67
2022-12-13T04:07:22.224Z,17.17
2022-12-13T04:10:25.191Z,19.52
2022-12-13T04:13:31.140Z,17.85
2022-12-13T04:16:18.444Z,15.60
2022-12-13T04:19:04.206Z,16.70
2022-12-13T04:21:49.670Z,16.90
2022-12-13T04:24:35.289Z,15.63
2022-12-13T04:27:20.768Z,17.13
2022-12-13T04:30:07.630Z,17.27
2022-12-13T04:32:52.741Z,15.45
2022-12-13T04:35:38.355Z,17.40
2022-12-13T04:38:23.798Z,16.25
2022-12-13T04:41:16.095Z,16.42
2022-12-13T04:44:01.370Z,13.95
2022-12-13T04:46:46.917Z,17.83
2022-12-13T04:49:33.418Z,14.80
2022-12-13T04:52:22.646Z,15.45
2022-12-13T04:55:09.567Z,13.70
2022-12-13T04:57:54.953Z,14.18
2022-12-13T05:00:41.108Z,13.80
2022-12-13T05:03:29.715Z,15.05
2022-12-13T05:06:27.099Z,13.60
2022-12-13T05:09:13.530Z,14.10
2022-12-13T05:12:01.814Z,14.48
2022-12-13T05:14:47.576Z,15.13
2022-12-13T05:17:33.277Z,14.65
2022-12-13T05:20:18.951Z,13.25
2022-12-13T05:23:06.327Z,13.98
2022-12-13T05:25:53.763Z,14.32
2022-12-13T05:28:39.798Z,14.15
2022-12-13T05:31:25.454Z,14.35
2022-12-13T05:34:10.824Z,15.65
2022-12-13T05:36:57.193Z,12.90
2022-12-13T05:39:44.433Z,14.68
2022-12-13T05:42:30.127Z,13.85
2022-12-13T05:45:17.943Z,14.65
2022-12-13T05:48:03.543Z,13.48
2022-12-13T05:50:49.093Z,14.35
2022-12-13T05:53:34.720Z,14.60
2022-12-13T05:56:22.641Z,13.95
2022-12-13T05:59:08.698Z,14.45
2022-12-13T06:01:54.384Z,14.77
2022-12-13T06:04:40.075Z,13.40
2022-12-13T06:07:25.613Z,14.05
2022-12-13T06:10:11.209Z,13.27
2022-12-13T06:13:00.904Z,12.00
2022-12-13T06:15:46.954Z,14.27
2022-12-13T06:18:34.952Z,13.07
2022-12-13T06:21:20.568Z,14.63
2022-12-13T06:24:08.728Z,13.57
2022-12-13T06:26:54.855Z,13.43
2022-12-13T06:29:40.777Z,13.77
2022-12-13T06:32:26.550Z,12.88
2022-12-13T06:35:27.844Z,13.98
2022-12-13T06:38:21.828Z,13.50
2022-12-13T06:41:17.730Z,13.98
2022-12-13T06:44:04.697Z,13.55
2022-12-13T06:46:50.307Z,14.07
2022-12-13T06:49:37.338Z,13.45
2022-12-13T06:52:24.965Z,13.10
2022-12-13T06:55:14.441Z,11.63
2022-12-13T06:57:59.887Z,12.57
2022-12-13T07:00:49.611Z,13.68
2022-12-13T07:03:37.290Z,14.73
2022-12-13T07:06:24.951Z,13.23
2022-12-13T07:09:10.357Z,14.20
2022-12-13T07:11:55.906Z,13.55
2022-12-13T07:14:41.563Z,13.40
2022-12-13T07:17:33.911Z,14.82
2022-12-13T07:20:20.987Z,12.70
2022-12-13T07:23:06.425Z,12.88
2022-12-13T07:25:55.428Z,15.63
2022-12-13T07:28:41.350Z,14.13
2022-12-13T07:31:26.737Z,14.60
2022-12-13T07:34:15.586Z,13.80
2022-12-13T07:37:01.533Z,13.68
2022-12-13T07:39:47.189Z,12.68
2022-12-13T07:42:32.903Z,13.85
2022-12-13T07:45:18.407Z,12.57
2022-12-13T07:48:05.947Z,12.88
2022-12-13T07:50:54.432Z,12.90
2022-12-13T07:53:41.114Z,12.80
2022-12-13T07:56:26.486Z,12.65
2022-12-13T07:59:12.164Z,12.68
2022-12-13T08:01:57.700Z,12.25
2022-12-13T08:04:54.831Z,13.02
2022-12-13T08:07:40.665Z,14.65
2022-12-13T08:10:26.459Z,13.68
2022-12-13T08:13:12.339Z,13.48
2022-12-13T08:16:03.017Z,12.27
2022-12-13T08:18:48.616Z,14.38
2022-12-13T08:22:01.535Z,14.90
2022-12-13T08:24:47.566Z,14.75
2022-12-13T08:27:33.405Z,13.88
2022-12-13T08:30:23.162Z,15.15
2022-12-13T08:33:08.769Z,14.82
2022-12-13T08:35:54.562Z,14.15
2022-12-13T08:38:40.300Z,13.95
2022-12-13T08:41:26.105Z,13.40
2022-12-13T08:44:11.524Z,15.10
2022-12-13T08:46:57.042Z,14.90
2022-12-13T08:49:43.197Z,13.95
2022-12-13T08:52:39.745Z,15.00
2022-12-13T08:55:31.702Z,13.27
2022-12-13T08:58:18.965Z,13.68
2022-12-13T09:01:10.674Z,12.65
2022-12-13T09:03:56.830Z,13.57
2022-12-13T09:06:43.501Z,13.10
2022-12-13T09:09:29.848Z,13.48
2022-12-13T09:12:30.617Z,12.85
2022-12-13T09:15:22.607Z,14.45
2022-12-13T09:18:15.365Z,12.48
2022-12-13T09:21:12.628Z,13.18
2022-12-13T09:24:02.044Z,14.68
2022-12-13T09:26:48.493Z,13.50
2022-12-13T09:29:42.637Z,14.23
2022-12-13T09:32:28.416Z,13.98
2022-12-13T09:35:13.754Z,13.02
2022-12-13T09:37:59.168Z,12.40
2022-12-13T09:40:47.377Z,11.93
2022-12-13T09:43:42.735Z,12.02
2022-12-13T09:46:44.902Z,12.75
2022-12-13T09:49:37.974Z,11.88
2022-12-13T09:52:25.783Z,13.02
2022-12-13T09:55:30.272Z,11.00
2022-12-13T09:58:20.517Z,13.15
2022-12-13T10:01:06.538Z,12.18
2022-12-13T10:03:56.077Z,11.93
2022-12-13T10:06:41.835Z,12.55
2022-12-13T10:09:27.691Z,13.90
2022-12-13T10:12:16.897Z,12.70
2022-12-13T10:15:03.530Z,11.63
2022-12-13T10:17:55.085Z,13.13
2022-12-13T10:20:42.209Z,11.70
2022-12-13T10:23:38.998Z,12.15
2022-12-13T10:26:38.270Z,11.82
2022-12-13T10:29:24.301Z,12.48
2022-12-13T10:32:13.722Z,10.35
2022-12-13T10:34:59.765Z,9.95
2022-12-13T10:37:45.646Z,10.60
2022-12-13T10:40:33.910Z,10.45
2022-12-13T10:43:27.588Z,10.02
2022-12-13T10:46:25.103Z,9.77
2022-12-13T10:49:27.341Z,9.05
2022-12-13T10:52:32.271Z,9.18
2022-12-13T10:55:34.707Z,8.32
2022-12-13T10:58:20.970Z,7.65
2022-12-13T11:01:17.034Z,8.85
2022-12-13T11:04:05.900Z,8.85
2022-12-13T11:06:52.124Z,8.70
2022-12-13T11:09:39.019Z,8.38
2022-12-13T11:12:27.393Z,9.77
2022-12-13T11:15:25.758Z,10.07
2022-12-13T11:18:23.441Z,9.45
2022-12-13T11:21:10.078Z,9.35
2022-12-13T11:24:01.725Z,9.85
2022-12-13T11:26:53.938Z,10.43
2022-12-13T11:30:00.657Z,10.23
2022-12-13T11:32:59.039Z,10.75
2022-12-13T11:35:57.189Z,11.50
2022-12-13T11:39:16.584Z,11.52
2022-12-13T11:42:22.373Z,11.02
2022-12-13T11:45:23.265Z,10.55
2022-12-13T11:48:27.496Z,10.80
2022-12-13T11:51:16.136Z,10.43
2022-12-13T11:54:07.607Z,11.43
2022-12-13T11:57:00.682Z,10.13
2022-12-13T11:59:52.831Z,10.35
2022-12-13T12:02:57.827Z,10.27
2022-12-13T12:05:59.647Z,10.55
2022-12-13T12:09:02.004Z,9.70
2022-12-13T12:12:09.347Z,10.73
2022-12-13T12:15:16.399Z,10.85
2022-12-13T12:18:02.386Z,10.27
2022-12-13T12:21:16.879Z,11.02
2022-12-13T12:24:12.829Z,10.15
2022-12-13T12:27:22.287Z,11.95
2022-12-13T12:30:44.514Z,11.32
2022-12-13T12:33:41.631Z,11.82
2022-12-13T12:36:52.090Z,10.63
2022-12-13T12:39:58.611Z,11.13
2022-12-13T12:43:16.720Z,9.70
2022-12-13T12:46:52.326Z,10.98
2022-12-13T12:49:57.709Z,10.27
2022-12-13T12:52:54.748Z,11.20
2022-12-13T12:55:40.293Z,11.70
2022-12-13T12:58:53.925Z,11.85
2022-12-13T13:02:21.143Z,12.10
2022-12-13T13:05:36.503Z,12.43
2022-12-13T13:08:55.301Z,11.13
2022-12-13T13:11:43.667Z,11.95
2022-12-13T13:14:35.307Z,11.85
2022-12-13T13:17:23.966Z,12.55
2022-12-13T13:20:24.399Z,12.32
2022-12-13T13:23:39.665Z,11.80
2022-12-13T13:26:35.880Z,12.52
2022-12-13T13:29:27.863Z,11.68
2022-12-13T13:32:28.327Z,11.25
2022-12-13T13:35:33.767Z,10.82
2022-12-13T13:38:22.547Z,10.15
2022-12-13T13:41:59.383Z,11.95
2022-12-13T13:44:51.402Z,11.25
2022-12-13T13:47:39.542Z,11.85
2022-12-13T13:50:42.814Z,10.75
2022-12-13T13:53:52.909Z,10.68
2022-12-13T13:57:03.930Z,10.75
2022-12-13T14:00:15.116Z,10.27
2022-12-13T14:03:32.668Z,10.25
2022-12-13T14:07:01.135Z,11.38
2022-12-13T14:10:24.437Z,10.65
2022-12-13T14:13:45.215Z,11.10
2022-12-13T14:16:43.354Z,12.07
2022-12-13T14:19:56.748Z,14.02
2022-12-13T14:23:07.589Z,13.55
2022-12-13T14:26:02.517Z,13.70
2022-12-13T14:28:54.337Z,14.40
2022-12-13T14:31:43.470Z,14.73
2022-12-13T14:34:31.016Z,13.95
2022-12-13T14:37:30.579Z,12.93
2022-12-13T14:40:49.523Z,14.75
2022-12-13T14:43:35.551Z,14.13
2022-12-13T14:46:21.107Z,17.50
2022-12-13T14:49:11.738Z,16.63
2022-12-13T14:52:03.648Z,16.08
2022-12-13T14:54:57.894Z,16.20
2022-12-13T14:57:52.443Z,16.00
2022-12-13T15:03:27.786Z,16.85
2022-12-13T15:06:13.921Z,17.85
2022-12-13T15:09:00.042Z,17.05
2022-12-13T15:11:46.390Z,17.77
2022-12-13T15:14:31.779Z,21.50
2022-12-13T15:17:32.348Z,19.17
2022-12-13T15:20:20.852Z,17.50
2022-12-13T15:23:30.035Z,16.23
2022-12-13T15:26:27.575Z,17.77
2022-12-13T15:29:19.569Z,16.23
2022-12-13T15:32:10.824Z,16.52
2022-12-13T15:34:56.042Z,16.77
2022-12-13T15:37:46.673Z,17.45
2022-12-13T15:40:33.776Z,15.27
2022-12-13T15:43:35.983Z,15.30
2022-12-13T15:46:27.283Z,15.52
2022-12-13T15:49:38.900Z,17.52
2022-12-13T15:52:28.496Z,16.65
2022-12-13T15:55:14.148Z,18.17
2022-12-13T15:58:27.272Z,18.42
2022-12-13T16:01:29.485Z,18.45
2022-12-13T16:04:23.119Z,17.88
2022-12-13T16:07:35.739Z,18.17
2022-12-13T16:10:21.953Z,17.85
2022-12-13T16:13:08.117Z,17.90
2022-12-13T16:16:28.214Z,19.13
2022-12-13T16:19:18.822Z,17.08
2022-12-13T16:22:08.648Z,15.25
2022-12-13T16:24:56.588Z,16.35
2022-12-13T16:27:42.744Z,18.73
2022-12-13T16:30:49.533Z,18.90
2022-12-13T16:33:36.149Z,19.17
2022-12-13T16:36:21.662Z,17.55
2022-12-13T16:39:10.871Z,16.23
2022-12-13T16:41:56.700Z,18.33
2022-12-13T16:44:42.039Z,14.45
2022-12-13T16:47:40.350Z,13.93
2022-12-13T16:50:32.684Z,14.75
2022-12-13T16:53:18.510Z,17.02
2022-12-13T16:56:04.225Z,16.30
2022-12-13T16:58:50.617Z,15.85
2022-12-13T17:01:36.716Z,17.15
2022-12-13T17:04:23.781Z,14.82
2022-12-13T17:07:09.241Z,16.05
2022-12-13T17:09:54.752Z,16.55
2022-12-13T17:12:40.221Z,15.90
2022-12-13T17:15:26.154Z,17.30
2022-12-13T17:18:12.950Z,16.38
2022-12-13T17:20:58.966Z,16.63
2022-12-13T17:23:44.606Z,15.07
2022-12-13T17:26:30.412Z,17.10
2022-12-13T17:29:17.799Z,15.85
2022-12-13T17:32:04.561Z,17.05
2022-12-13T17:34:51.390Z,16.55
2022-12-13T17:37:37.007Z,15.80
2022-12-13T17:40:22.398Z,14.27
2022-12-13T17:43:08.322Z,15.50
2022-12-13T17:46:06.042Z,15.23
2022-12-13T17:48:52.482Z,16.48
2022-12-13T17:51:38.076Z,14.88
2022-12-13T17:54:25.539Z,17.67
2022-12-13T17:57:11.836Z,15.73
2022-12-13T17:59:57.239Z,15.93
2022-12-13T18:02:42.738Z,15.65
2022-12-13T18:05:40.911Z,16.85
2022-12-13T18:08:27.460Z,15.70
2022-12-13T18:11:32.321Z,14.13
2022-12-13T18:14:19.093Z,15.85
2022-12-13T18:17:05.059Z,15.95
2022-12-13T18:19:50.814Z,14.90
2022-12-13T18:22:41.412Z,18.55
2022-12-13T18:25:29.569Z,17.08
2022-12-13T18:28:15.118Z,20.45
2022-12-13T18:31:06.493Z,20.20
2022-12-13T18:33:53.417Z,22.35
2022-12-13T18:36:41.716Z,17.83
2022-12-13T18:39:28.176Z,18.50
2022-12-13T18:42:13.371Z,18.70
2022-12-13T18:44:58.990Z,19.88
2022-12-13T18:47:44.589Z,17.98
2022-12-13T18:50:30.266Z,18.33
2022-12-13T18:53:15.802Z,17.10
2022-12-13T18:56:18.207Z,20.00
2022-12-13T18:59:05.024Z,20.48
2022-12-13T19:01:50.908Z,19.02
2022-12-13T19:04:36.785Z,17.70
2022-12-13T19:07:22.356Z,20.70
2022-12-13T19:10:08.199Z,20.13
2022-12-13T19:12:53.791Z,20.05
2022-12-13T19:15:40.524Z,19.25
2022-12-13T19:18:27.520Z,18.73
2022-12-13T19:21:15.652Z,18.52
2022-12-13T19:24:01.536Z,17.58
2022-12-13T19:26:47.393Z,18.38
2022-12-13T19:29:32.774Z,20.70
2022-12-13T19:32:19.003Z,20.55
2022-12-13T19:35:04.860Z,19.73
2022-12-13T19:37:50.388Z,20.90
2022-12-13T19:40:39.345Z,19.83
2022-12-13T19:43:25.077Z,24.20
2022-12-13T19:46:11.850Z,24.98
2022-12-13T19:48:57.715Z,22.60
2022-12-13T19:51:43.628Z,23.63
2022-12-13T19:54:30.336Z,27.05
2022-12-13T19:57:15.877Z,23.42
2022-12-13T20:00:01.307Z,24.00
2022-12-13T20:02:47.021Z,22.95
2022-12-13T20:05:33.653Z,22.92
2022-12-13T20:08:19.598Z,19.52
2022-12-13T20:11:11.407Z,21.92
2022-12-13T20:13:57.311Z,20.42
2022-12-13T20:16:43.679Z,21.23
2022-12-13T20:19:29.806Z,21.52
2022-12-13T20:22:15.793Z,20.42
2022-12-13T20:25:01.160Z,20.10
2022-12-13T20:27:46.538Z,18.83
2022-12-13T20:30:32.983Z,21.38
2022-12-13T20:33:18.333Z,20.80
2022-12-13T20:36:27.075Z,22.23
2022-12-13T20:39:14.486Z,20.95
2022-12-13T20:41:59.972Z,22.73
2022-12-13T20:44:45.657Z,21.10
2022-12-13T20:47:36.392Z,22.38
2022-12-13T20:50:23.441Z,21.05
2022-12-13T20:53:09.111Z,19.77
2022-12-13T20:55:58.060Z,20.05
2022-12-13T20:58:46.902Z,19.90
2022-12-13T21:01:35.158Z,17.35
2022-12-13T21:04:20.690Z,16.20
2022-12-13T21:07:06.758Z,18.42
2022-12-13T21:09:51.976Z,18.45
2022-12-13T21:12:37.607Z,17.65
2022-12-13T21:15:23.271Z,18.02
2022-12-13T21:18:08.785Z,17.90
2022-12-13T21:20:55.613Z,18.10
2022-12-13T21:23:40.881Z,18.58
2022-12-13T21:26:33.090Z,17.92
2022-12-13T21:29:20.421Z,18.60
2022-12-13T21:32:06.178Z,17.45
2022-12-13T21:34:51.633Z,17.67
2022-12-13T21:37:37.288Z,17.27
2022-12-13T21:40:24.137Z,19.48
2022-12-13T21:43:09.386Z,16.77
2022-12-13T21:45:54.887Z,18.75
2022-12-13T21:48:42.872Z,18.60
2022-12-13T21:51:31.112Z,19.20
2022-12-13T21:54:17.044Z,18.95
2022-12-13T21:57:20.982Z,20.20
2022-12-13T22:02:52.108Z,18.85
2022-12-13T22:05:37.655Z,20.75
2022-12-13T22:08:23.216Z,21.00
2022-12-13T22:11:20.810Z,21.65
2022-12-13T22:14:06.971Z,20.77
2022-12-13T22:16:52.337Z,20.00
2022-12-13T22:19:37.861Z,20.92
2022-12-13T22:22:24.284Z,21.83
2022-12-13T22:25:10.251Z,20.00
2022-12-13T22:27:55.619Z,20.58
2022-12-13T22:30:41.566Z,19.00
2022-12-13T22:33:27.032Z,20.42
2022-12-13T22:36:12.499Z,20.40
2022-12-13T22:38:58.100Z,21.70
2022-12-13T22:41:43.729Z,23.65
2022-12-13T22:44:29.049Z,23.25
2022-12-13T22:47:14.249Z,23.63
2022-12-13T22:49:59.735Z,20.77
2022-12-13T22:52:45.373Z,22.30
2022-12-13T22:55:30.957Z,19.73
2022-12-13T22:58:16.595Z,21.63
2022-12-13T23:01:09.308Z,20.25
2022-12-13T23:03:55.559Z,21.63
2022-12-13T23:06:41.418Z,22.15
2022-12-13T23:09:27.057Z,19.95
2022-12-13T23:12:31.157Z,21.48
2022-12-13T23:15:16.595Z,21.92
2022-12-13T23:18:02.127Z,21.25
2022-12-13T23:20:48.433Z,20.38
2022-12-13T23:23:34.331Z,20.15
2022-12-13T23:26:22.384Z,19.70
2022-12-13T23:29:08.675Z,20.95
2022-12-13T23:31:54.005Z,19.90
2022-12-13T23:34:39.332Z,22.17
2022-12-13T23:37:25.040Z,21.52
2022-12-13T23:40:11.160Z,21.38
2022-12-13T23:42:56.672Z,22.33
2022-12-13T23:45:42.406Z,20.52
2022-12-13T23:48:28.855Z,19.45
2022-12-13T23:51:16.762Z,18.98
2022-12-13T23:54:02.318Z,19.48
2022-12-13T23:56:48.239Z,18.25
2022-12-13T23:59:33.489Z,19.30
